Time;durP1;ratioP1;P1;durP2;ratioP2;P2;SDS_P1;SDS_P2;PMS_P1;PMS_P2;Temp;Humidity;BMP_temperature;BMP_pressure;BME280_temperature;BME280_humidity;BME280_pressure;Samples;Min_cycle;Max_cycle;Signal;HPM_P1;HPM_P2
2022/03/08 00:04:19;;;;;;;107.80;47.63;;;;;;;-1.54;79.75;99523.20;4597133;75;21022;-87
2022/03/08 00:10:21;;;;;;;103.13;47.03;;;;;;;-1.51;80.09;99520.48;4588775;75;21005;-88
2022/03/08 00:16:23;;;;;;;113.27;49.53;;;;;;;-1.50;80.12;99509.45;4592800;75;21035;-87
2022/03/08 00:22:24;;;;;;;98.40;43.33;;;;;;;-1.45;80.14;99524.18;4596385;75;21018;-88
2022/03/08 00:28:28;;;;;;;105.63;48.13;;;;;;;-1.39;79.87;99523.60;4584550;75;21053;-87
2022/03/08 00:34:29;;;;;;;91.30;42.57;;;;;;;-1.31;80.31;99530.48;4590718;75;21134;-87
2022/03/08 00:40:31;;;;;;;94.40;42.63;;;;;;;-1.22;80.25;99536.83;4642323;75;21003;-86
2022/03/08 00:46:34;;;;;;;104.20;46.07;;;;;;;-1.15;80.65;99525.74;4619503;75;20994;-87
2022/03/08 00:52:36;;;;;;;100.40;43.97;;;;;;;-1.09;80.81;99534.00;4634209;75;21014;-87
2022/03/08 00:58:38;;;;;;;98.42;44.70;;;;;;;-1.04;80.85;99532.07;4632889;75;21516;-87
2022/03/08 01:04:39;;;;;;;101.10;45.70;;;;;;;-1.00;81.01;99537.69;4642010;75;21298;-87
2022/03/08 01:10:41;;;;;;;100.90;46.73;;;;;;;-0.99;80.95;99527.19;4617107;75;21671;-87
2022/03/08 01:16:42;;;;;;;91.33;41.80;;;;;;;-1.00;80.88;99533.66;4627245;75;20991;-87
2022/03/08 01:22:44;;;;;;;88.10;40.43;;;;;;;-1.01;80.75;99534.72;4630694;75;21056;-87
2022/03/08 01:28:45;;;;;;;91.23;42.10;;;;;;;-1.03;81.04;99530.16;4646811;75;21503;-87
2022/03/08 01:34:46;;;;;;;106.80;47.88;;;;;;;-0.99;81.21;99529.87;4646256;75;22222;-87
2022/03/08 01:40:50;;;;;;;93.00;43.45;;;;;;;-1.03;81.06;99522.91;4634149;75;20997;-86
2022/03/08 01:46:58;;;;;;;85.90;39.90;;;;;;;-1.13;80.78;99526.27;4644743;75;21051;-87
2022/03/08 01:52:58;;;;;;;94.25;41.13;;;;;;;-1.26;80.22;99525.59;4620157;75;21512;-85
2022/03/08 01:59:01;;;;;;;89.17;41.30;;;;;;;-1.50;80.67;99517.52;4645668;75;21520;-85
2022/03/08 02:05:42;;;;;;;98.07;47.20;;;;;;;-1.64;80.84;99513.36;4700982;75;21416;-85
2022/03/08 02:33:02;;;;;;;95.70;44.60;;;;;;;-2.19;81.05;99498.25;4291871;82;20976;-84
2022/03/08 02:39:03;;;;;;;96.83;41.77;;;;;;;-2.36;80.77;99501.86;4356328;76;21522;-85
2022/03/08 02:45:07;;;;;;;112.73;48.23;;;;;;;-2.50;80.97;99510.27;4565842;76;21617;-85
2022/03/08 02:51:08;;;;;;;97.53;44.53;;;;;;;-2.65;80.93;99513.85;4559609;76;21045;-85
2022/03/08 02:57:09;;;;;;;99.00;42.67;;;;;;;-2.75;81.19;99513.08;4575559;76;21485;-85
2022/03/08 03:03:11;;;;;;;103.87;43.80;;;;;;;-2.82;81.33;99516.61;4559821;76;21068;-84
2022/03/08 03:09:12;;;;;;;101.87;45.73;;;;;;;-2.82;81.01;99524.12;4584575;76;21836;-86
2022/03/08 03:15:16;;;;;;;109.10;49.40;;;;;;;-2.78;81.73;99527.03;4560697;76;21048;-85
2022/03/08 03:21:17;;;;;;;112.43;50.10;;;;;;;-2.66;82.56;99534.23;4537967;76;21002;-85
2022/03/08 03:27:19;;;;;;;129.07;59.63;;;;;;;-2.56;83.12;99538.98;4546304;76;21518;-85
2022/03/08 03:33:21;;;;;;;127.47;58.17;;;;;;;-2.41;83.45;99545.59;4582054;76;21023;-85
2022/03/08 03:39:23;;;;;;;139.20;62.27;;;;;;;-2.24;83.73;99546.58;4567531;76;21035;-86
2022/03/08 03:45:24;;;;;;;134.27;59.93;;;;;;;-2.08;83.82;99551.55;4471218;76;203940;-86
2022/03/08 03:51:26;;;;;;;127.73;60.87;;;;;;;-1.94;84.03;99553.86;4296384;81;21611;-86
2022/03/08 03:57:27;;;;;;;135.73;61.90;;;;;;;-1.85;84.18;99556.20;4291099;81;21053;-86
2022/03/08 04:03:29;;;;;;;133.00;61.70;;;;;;;-1.81;84.39;99550.55;4294172;81;21022;-86
2022/03/08 04:09:30;;;;;;;126.18;60.98;;;;;;;-1.75;84.17;99557.48;4296159;81;21660;-86
2022/03/08 04:15:33;;;;;;;133.97;63.20;;;;;;;-1.73;84.05;99557.19;4300170;81;21785;-86
2022/03/08 04:21:34;;;;;;;160.63;65.37;;;;;;;-1.74;84.25;99569.02;4291314;81;21009;-86
2022/03/08 04:27:36;;;;;;;132.40;64.27;;;;;;;-1.69;84.53;99577.01;4288433;81;21096;-85
2022/03/08 04:33:37;;;;;;;130.50;62.77;;;;;;;-1.66;84.42;99581.28;4280663;82;21013;-84
2022/03/08 04:39:39;;;;;;;124.77;60.77;;;;;;;-1.67;84.44;99583.72;4271788;82;21656;-85
2022/03/08 04:45:40;;;;;;;135.23;65.03;;;;;;;-1.64;84.38;99589.86;4275838;81;21099;-85
2022/03/08 04:51:41;;;;;;;133.43;65.30;;;;;;;-1.62;84.37;99590.92;4250823;81;21610;-85
2022/03/08 04:57:42;;;;;;;136.52;64.65;;;;;;;-1.60;84.45;99600.29;4272968;80;21055;-86
2022/03/08 05:03:44;;;;;;;137.27;61.87;;;;;;;-1.58;84.50;99599.23;4257917;81;22113;-85
2022/03/08 05:09:45;;;;;;;117.83;54.60;;;;;;;-1.55;84.60;99599.45;4256480;80;21367;-86
2022/03/08 05:15:48;;;;;;;126.77;59.67;;;;;;;-1.54;84.21;99603.75;4245425;81;20984;-85
2022/03/08 05:21:50;;;;;;;132.77;59.00;;;;;;;-1.53;84.70;99606.69;4249362;82;21046;-86
2022/03/08 05:27:51;;;;;;;130.47;58.45;;;;;;;-1.51;84.69;99619.30;4273546;81;21007;-85
2022/03/08 05:33:52;;;;;;;125.10;55.90;;;;;;;-1.48;84.52;99619.27;4256230;81;20994;-86
2022/03/08 05:39:54;;;;;;;118.43;55.20;;;;;;;-1.44;84.84;99631.06;4210625;81;21437;-86
2022/03/08 05:45:55;;;;;;;136.15;60.45;;;;;;;-1.46;84.84;99631.34;4221592;82;21114;-85
2022/03/08 05:51:57;;;;;;;124.63;58.33;;;;;;;-1.44;84.85;99639.90;4213032;82;20985;-86
2022/03/08 05:57:59;;;;;;;131.72;59.18;;;;;;;-1.40;84.47;99635.59;4215081;82;21008;-86
2022/03/08 06:04:00;;;;;;;132.25;60.50;;;;;;;-1.33;84.87;99646.79;4212191;82;21501;-86
2022/03/08 06:10:04;;;;;;;150.87;67.97;;;;;;;-1.25;84.88;99644.06;4213867;82;21595;-86
2022/03/08 06:16:05;;;;;;;137.50;66.90;;;;;;;-1.15;84.96;99640.73;4213361;82;21098;-86
2022/03/08 06:22:06;;;;;;;123.22;58.28;;;;;;;-1.00;84.73;99642.48;4213153;82;21807;-86
2022/03/08 06:28:08;;;;;;;127.15;58.70;;;;;;;-0.84;84.64;99641.23;4210397;82;21499;-88
2022/03/08 06:34:10;;;;;;;111.85;54.33;;;;;;;-0.60;84.75;99650.12;4216407;82;21048;-88
2022/03/08 06:40:12;;;;;;;109.27;49.65;;;;;;;-0.24;84.27;99643.22;4235907;82;21050;-89
2022/03/08 06:46:14;;;;;;;83.25;39.73;;;;;;;-0.24;84.27;99643.22;4264648;82;22101;-88
2022/03/08 06:52:16;;;;;;;81.30;38.70;;;;;;;-0.08;84.11;99659.44;4246656;82;21107;-88
2022/03/08 06:58:18;;;;;;;90.55;40.98;;;;;;;0.05;83.91;99664.66;4256659;82;21062;-88
2022/03/08 07:04:19;;;;;;;80.90;36.98;;;;;;;0.15;83.75;99663.96;4260864;82;20983;-88
2022/03/08 07:10:21;;;;;;;75.75;36.73;;;;;;;0.15;83.49;99665.30;4253492;82;21114;-88
2022/03/08 07:16:23;;;;;;;87.53;40.28;;;;;;;0.31;83.80;99664.55;4269343;81;20987;-89
2022/03/08 07:22:24;;;;;;;64.62;33.48;;;;;;;0.54;83.87;99661.76;4255704;82;21093;-88
2022/03/08 07:28:26;;;;;;;83.05;39.20;;;;;;;0.86;83.63;99654.24;4249822;82;21010;-88
2022/03/08 07:34:28;;;;;;;54.95;28.20;;;;;;;1.19;83.34;99651.20;4250745;82;21015;-89
2022/03/08 07:40:30;;;;;;;49.63;22.62;;;;;;;1.19;82.80;99639.64;4247782;81;21062;-90
2022/03/08 07:46:39;;;;;;;31.35;15.78;;;;;;;1.24;82.71;99651.66;4246685;82;21116;-92
2022/03/08 07:52:41;;;;;;;39.42;19.15;;;;;;;1.37;82.47;99649.53;4255862;82;21932;-91
2022/03/08 07:58:46;;;;;;;42.45;20.77;;;;;;;1.41;81.98;99658.07;4259682;82;21061;-89
2022/03/08 08:05:08;;;;;;;53.52;22.95;;;;;;;1.51;81.82;99661.94;4241047;82;21110;-91
2022/03/08 08:18:42;;;;;;;43.58;21.68;;;;;;;1.69;82.26;99666.19;4238265;82;21105;-89
2022/03/08 08:24:45;;;;;;;42.78;20.65;;;;;;;1.72;81.66;99660.19;4227004;82;21563;-89
2022/03/08 08:30:49;;;;;;;40.67;20.82;;;;;;;1.85;81.87;99660.73;4204150;82;21018;-89
2022/03/08 08:36:50;;;;;;;41.18;20.02;;;;;;;1.87;81.49;99672.01;4255650;81;21078;-89
2022/03/08 08:42:51;;;;;;;41.55;20.35;;;;;;;1.91;81.15;99685.17;4262968;81;21008;-88
2022/03/08 08:48:53;;;;;;;47.80;22.95;;;;;;;1.95;81.07;99693.72;4219167;81;21082;-88
2022/03/08 08:54:54;;;;;;;48.85;23.77;;;;;;;2.07;80.98;99695.91;4165214;83;21024;-87
2022/03/08 09:00:56;;;;;;;48.50;26.20;;;;;;;2.02;80.75;99698.71;4081892;85;21086;-88
2022/03/08 09:06:58;;;;;;;55.25;26.05;;;;;;;2.09;80.97;99686.94;4126886;84;21082;-87
2022/03/08 09:12:59;;;;;;;53.30;25.40;;;;;;;2.34;80.99;99699.89;4132024;84;21113;-88
2022/03/08 09:19:12;;;;;;;;;;;;;;;;;;;;;
2022/03/08 09:25:16;;;;;;;45.60;24.25;;;;;;;2.47;80.36;99703.94;4130441;84;21034;-88
2022/03/08 09:31:17;;;;;;;43.80;23.07;;;;;;;2.67;80.07;99703.46;4116101;83;216437;-87
2022/03/08 09:37:19;;;;;;;53.50;26.20;;;;;;;2.72;79.78;99704.70;4072332;84;21034;-86
2022/03/08 09:43:22;;;;;;;50.80;24.90;;;;;;;2.58;79.92;99696.39;4291145;80;319145;-90
2022/03/08 09:49:48;;;;;;;49.18;25.95;;;;;;;2.48;79.46;99706.06;4312240;81;21000;-87
2022/03/08 09:56:19;;;;;;;47.23;24.63;;;;;;;2.49;79.49;99706.33;4330374;81;21205;-87
2022/03/08 10:02:22;;;;;;;50.63;25.60;;;;;;;2.75;79.84;99709.50;4372232;80;21614;-85
2022/03/08 10:08:25;;;;;;;45.60;21.93;;;;;;;3.31;79.50;99701.33;4304499;81;21070;-86
2022/03/08 10:14:38;;;;;;;49.33;24.82;;;;;;;3.40;77.74;99699.50;4267216;81;21114;-85
2022/03/08 10:20:40;;;;;;;47.65;22.65;;;;;;;3.56;77.98;99693.36;4295152;81;20953;-86
2022/03/08 10:27:00;;;;;;;24.82;11.73;;;;;;;3.54;76.81;99702.33;4318793;81;21548;-88
2022/03/08 10:33:02;;;;;;;17.40;9.38;;;;;;;3.57;76.89;99703.06;4265008;81;21000;-89
2022/03/08 10:39:15;;;;;;;17.48;9.25;;;;;;;3.49;75.97;99704.39;4263186;81;21107;-89
2022/03/08 10:45:18;;;;;;;14.87;7.08;;;;;;;3.39;75.77;99702.75;4273848;81;21576;-87
2022/03/08 10:51:22;;;;;;;10.63;5.72;;;;;;;3.45;75.41;99688.52;4279489;81;21084;-87
2022/03/08 10:57:34;;;;;;;10.88;5.70;;;;;;;5.16;75.64;99680.07;4202344;83;21056;-85
2022/03/08 11:10:35;;;;;;;11.08;4.60;;;;;;;5.88;73.20;99676.73;4297273;80;22189;-88
2022/03/08 11:16:53;;;;;;;7.97;5.08;;;;;;;5.26;71.69;99660.16;4284607;81;21551;-88
2022/03/08 11:23:31;;;;;;;9.48;5.08;;;;;;;5.46;72.38;99652.69;4292287;81;21088;-87
2022/03/08 11:29:33;;;;;;;8.45;4.50;;;;;;;6.88;70.50;99647.53;4157783;84;21118;-88
2022/03/08 11:36:15;;;;;;;8.20;4.03;;;;;;;6.26;69.30;99640.20;4239460;82;21063;-88
2022/03/08 11:42:31;;;;;;;6.97;3.72;;;;;;;5.64;68.92;99631.66;4236287;82;21053;-87
2022/03/08 11:49:45;;;;;;;6.85;4.50;;;;;;;5.84;68.50;99634.47;4166955;81;70635;-88
2022/03/08 11:55:56;;;;;;;9.37;3.87;;;;;;;5.96;65.59;99626.98;4025545;84;21086;-88
2022/03/08 12:02:32;;;;;;;6.83;3.35;;;;;;;5.99;66.67;99629.04;4160346;84;20996;-89
2022/03/08 12:08:47;;;;;;;9.38;4.37;;;;;;;6.09;65.54;99617.21;4061967;86;21115;-88
2022/03/08 12:14:49;;;;;;;8.38;4.15;;;;;;;5.59;65.39;99598.70;4072389;86;21060;-88
2022/03/08 12:21:47;;;;;;;6.33;3.30;;;;;;;5.31;64.13;99596.77;4070964;85;20997;-88
2022/03/08 12:27:59;;;;;;;7.60;3.77;;;;;;;5.42;64.68;99596.07;4151716;84;21045;-87
2022/03/08 12:34:06;;;;;;;11.10;4.30;;;;;;;6.14;62.81;99583.59;4155799;84;21043;-88
2022/03/08 12:46:53;;;;;;;16.27;8.08;;;;;;;6.54;61.84;99576.56;4247737;82;21089;-88
2022/03/08 12:52:59;;;;;;;24.10;10.10;;;;;;;6.67;61.10;99572.73;4237401;82;21593;-89
2022/03/08 12:59:04;;;;;;;14.07;7.43;;;;;;;6.85;59.82;99565.20;4236893;82;21063;-89
2022/03/08 14:43:15;;;;;;;24.07;12.07;;;;;;;5.40;58.22;99554.89;4038218;87;21126;-88
2022/03/08 15:11:34;;;;;;;18.15;10.78;;;;;;;4.58;57.76;99552.62;3934472;89;21125;-87
2022/03/08 15:24:36;;;;;;;23.40;11.68;;;;;;;4.42;58.17;99547.45;3877395;84;21209;-88
2022/03/08 15:30:37;;;;;;;28.62;14.58;;;;;;;4.37;58.48;99558.45;4181446;83;21036;-89
2022/03/08 15:36:39;;;;;;;25.25;12.60;;;;;;;4.26;58.41;99561.83;4224299;83;21069;-87
2022/03/08 15:42:41;;;;;;;27.93;13.68;;;;;;;4.23;59.07;99567.86;4164093;84;21092;-88
2022/03/08 15:48:43;;;;;;;23.70;11.68;;;;;;;4.11;58.81;99565.80;4244227;82;146559;-89
2022/03/08 15:54:44;;;;;;;24.20;13.25;;;;;;;3.95;59.01;99575.51;4148930;84;21073;-88
2022/03/08 16:00:46;;;;;;;28.85;13.38;;;;;;;3.85;59.01;99573.13;4245441;82;21015;-88
2022/03/08 16:06:47;;;;;;;35.73;16.20;;;;;;;3.71;59.04;99588.68;4237798;82;21519;-88
2022/03/08 16:12:49;;;;;;;31.85;14.83;;;;;;;3.62;59.42;99606.82;4229508;82;21022;-88
2022/03/08 16:18:50;;;;;;;27.30;14.95;;;;;;;3.50;59.27;99607.98;4240792;82;21109;-89
2022/03/08 16:31:36;;;;;;;27.05;15.63;;;;;;;3.31;60.21;99617.45;4293729;79;21057;-88
2022/03/08 16:37:38;;;;;;;25.62;14.40;;;;;;;3.19;60.02;99618.83;4313406;80;21965;-88
2022/03/08 16:43:40;;;;;;;27.77;14.30;;;;;;;3.08;60.28;99621.59;4316912;79;21120;-88
2022/03/08 16:49:41;;;;;;;27.73;15.98;;;;;;;3.01;60.59;99629.33;4292243;81;21030;-88
2022/03/08 16:55:43;;;;;;;43.73;20.48;;;;;;;2.90;60.67;99635.30;4263426;81;21108;-88
2022/03/08 17:01:44;;;;;;;34.05;18.20;;;;;;;2.80;61.14;99644.46;4291277;81;21569;-88
2022/03/08 17:07:45;;;;;;;42.80;20.27;;;;;;;2.73;61.21;99658.98;4275676;79;21034;-88
2022/03/08 17:13:49;;;;;;;58.63;24.60;;;;;;;2.67;61.56;99664.27;4259725;81;20959;-87
2022/03/08 17:19:50;;;;;;;51.95;25.65;;;;;;;2.59;61.84;99663.64;4256535;79;21503;-87
2022/03/08 17:25:52;;;;;;;66.70;28.30;;;;;;;2.53;62.22;99660.82;4239553;81;21057;-88
2022/03/08 17:32:24;;;;;;;44.85;21.75;;;;;;;2.47;62.27;99671.50;4231459;79;21567;-88
2022/03/08 17:38:26;;;;;;;74.15;33.30;;;;;;;2.41;62.36;99674.63;4277792;80;20998;-89
2022/03/08 17:44:27;;;;;;;62.93;30.72;;;;;;;2.39;62.75;99677.63;4242154;81;21109;-87
2022/03/08 18:04:55;;;;;;;38.45;21.20;;;;;;;2.28;63.35;99688.41;3998791;86;94236;-86
2022/03/08 18:17:25;;;;;;;40.08;22.32;;;;;;;2.19;63.52;99679.98;4065903;86;21074;-88
2022/03/08 18:23:26;;;;;;;49.30;24.80;;;;;;;2.17;63.98;99688.38;4048108;86;21086;-88
2022/03/08 18:29:27;;;;;;;45.92;24.47;;;;;;;2.15;64.28;99690.58;4075930;86;21551;-87
2022/03/08 18:35:30;;;;;;;51.25;24.75;;;;;;;2.14;64.52;99686.30;4187630;83;21054;-87
2022/03/08 18:49:01;;;;;;;47.10;24.70;;;;;;;2.09;64.75;99684.23;4189419;82;21006;-87
2022/03/08 19:02:35;;;;;;;49.45;25.05;;;;;;;2.05;64.90;99677.28;4189115;83;21010;-86
2022/03/08 19:08:36;;;;;;;48.95;27.22;;;;;;;2.00;65.05;99665.80;4109178;82;10000278;-88
2022/03/08 19:14:38;;;;;;;55.88;27.37;;;;;;;1.96;65.11;99670.22;4171089;83;21082;-87
2022/03/08 19:20:39;;;;;;;58.83;28.55;;;;;;;1.92;65.65;99670.56;4192469;83;21035;-87
2022/03/08 19:26:41;;;;;;;60.52;29.92;;;;;;;1.90;65.71;99675.45;4195531;83;21083;-87
2022/03/08 19:32:50;;;;;;;68.17;33.48;;;;;;;1.81;65.98;99673.22;4194894;82;21051;-87
2022/03/08 19:38:54;;;;;;;59.65;30.88;;;;;;;1.74;66.18;99664.73;4196440;83;21034;-87
2022/03/08 19:44:55;;;;;;;64.60;31.42;;;;;;;1.64;66.39;99661.12;4194335;83;21069;-87
2022/03/08 19:50:58;;;;;;;64.65;33.13;;;;;;;1.52;66.30;99666.77;4196073;83;20979;-87
2022/03/08 19:57:00;;;;;;;66.80;33.13;;;;;;;1.40;66.77;99665.12;4172766;83;21046;-87
2022/03/08 20:03:01;;;;;;;64.82;35.00;;;;;;;1.28;66.77;99668.86;4193964;82;21105;-87
2022/03/08 20:09:05;;;;;;;75.15;37.15;;;;;;;1.18;67.19;99663.09;4063116;83;10000002;-87
2022/03/08 20:15:08;;;;;;;84.28;36.58;;;;;;;1.14;67.33;99658.03;4174867;83;21685;-87
2022/03/08 20:21:11;;;;;;;75.87;35.45;;;;;;;1.07;67.51;99658.98;4170866;83;21050;-88
2022/03/08 20:27:12;;;;;;;78.62;37.25;;;;;;;1.00;67.93;99667.98;4195817;83;21043;-87
2022/03/08 20:33:16;;;;;;;71.65;35.10;;;;;;;1.00;68.09;99676.64;4178237;83;21144;-86
2022/03/08 20:39:29;;;;;;;80.62;37.98;;;;;;;1.03;67.73;99667.96;4165382;83;21041;-86
2022/03/08 20:45:33;;;;;;;85.60;38.95;;;;;;;1.04;68.31;99668.20;4187795;83;21479;-87
2022/03/08 20:58:07;;;;;;;81.72;38.08;;;;;;;1.08;68.83;99674.05;4164672;83;21014;-87
2022/03/08 21:04:10;;;;;;;93.67;44.30;;;;;;;1.12;68.56;99671.56;4189357;83;21094;-87
2022/03/08 21:10:12;;;;;;;89.25;41.85;;;;;;;1.12;68.95;99678.31;4201502;83;22500;-88
2022/03/08 21:16:14;;;;;;;101.18;46.55;;;;;;;1.12;68.74;99675.62;4191896;83;22134;-87
2022/03/08 21:22:17;;;;;;;94.50;45.30;;;;;;;1.09;69.30;99677.56;4236144;82;21048;-88
2022/03/08 21:35:21;;;;;;;102.75;47.55;;;;;;;1.14;69.43;99699.05;4194574;83;21117;-87
2022/03/08 21:41:23;;;;;;;99.85;49.18;;;;;;;1.13;69.32;99695.54;4196769;83;21054;-86
2022/03/08 21:47:24;;;;;;;99.85;50.30;;;;;;;1.11;69.81;99690.20;4169594;83;21045;-87
2022/03/08 22:00:12;;;;;;;113.42;51.75;;;;;;;1.02;69.59;99671.20;4151087;79;27201;-86
2022/03/08 22:06:14;;;;;;;115.62;54.23;;;;;;;0.93;69.92;99678.38;4082655;85;21087;-87
2022/03/08 22:12:15;;;;;;;114.75;55.12;;;;;;;0.84;70.28;99693.63;4095595;85;21039;-87
2022/03/08 22:18:21;;;;;;;120.33;55.20;;;;;;;0.78;70.45;99696.15;4030000;85;21072;-87
2022/03/08 22:24:24;;;;;;;126.53;58.60;;;;;;;0.77;70.74;99676.20;4197916;82;21055;-87
2022/03/08 22:30:25;;;;;;;123.20;58.38;;;;;;;0.76;70.82;99678.66;4175171;82;21098;-86
2022/03/08 22:36:27;;;;;;;125.62;58.73;;;;;;;0.73;70.87;99671.97;4156920;83;21559;-87
2022/03/08 22:42:28;;;;;;;136.40;62.73;;;;;;;0.63;71.08;99667.27;4191187;82;21945;-88
2022/03/08 22:48:30;;;;;;;129.18;60.92;;;;;;;0.69;71.25;99691.72;4203965;82;21067;-87
2022/03/08 22:54:54;;;;;;;133.90;59.33;;;;;;;0.71;71.64;99693.55;4191294;82;21056;-86
2022/03/08 23:00:56;;;;;;;144.57;62.10;;;;;;;0.71;71.47;99701.09;4185228;82;21127;-88
2022/03/08 23:07:39;;;;;;;132.78;59.80;;;;;;;0.63;71.87;99700.41;4201563;82;21650;-87
2022/03/08 23:13:41;;;;;;;131.00;63.90;;;;;;;0.63;71.81;99703.10;4196517;82;21157;-87
2022/03/08 23:19:42;;;;;;;141.32;66.85;;;;;;;0.60;72.15;99698.30;4169171;82;21094;-87
2022/03/08 23:25:50;;;;;;;146.75;67.70;;;;;;;0.60;72.32;99692.11;4210386;82;21078;-87
2022/03/08 23:31:54;;;;;;;146.45;66.33;;;;;;;0.60;72.31;99702.88;4194019;82;22343;-86
2022/03/08 23:38:02;;;;;;;149.45;70.78;;;;;;;0.57;72.64;99691.34;4180170;82;21041;-87
2022/03/08 23:44:05;;;;;;;148.35;68.95;;;;;;;0.55;72.71;99684.91;4182397;82;21059;-86
2022/03/08 23:50:07;;;;;;;156.18;71.67;;;;;;;0.51;72.95;99683.91;4189004;82;21109;-86
2022/03/08 23:56:09;;;;;;;148.72;67.17;;;;;;;0.54;73.17;99688.70;4197315;82;21083;-87
